sensor_id;sensor_type;location;lat;lon;timestamp;P1;durP1;ratioP1;P2;durP2;ratioP2
16743;SDS011;71724;-33.900;151.182;2023-11-19T00:00:27;5.82;;;1.35;;
16743;SDS011;71724;-33.900;151.182;2023-11-19T00:02:57;6.85;;;1.10;;
16743;SDS011;71724;-33.900;151.182;2023-11-19T00:05:24;8.27;;;1.00;;
16743;SDS011;71724;-33.900;151.182;2023-11-19T00:07:56;3.58;;;1.30;;
16743;SDS011;71724;-33.900;151.182;2023-11-19T00:10:25;5.22;;;1.33;;
16743;SDS011;71724;-33.900;151.182;2023-11-19T00:12:53;3.53;;;1.17;;
16743;SDS011;71724;-33.900;151.182;2023-11-19T00:15:22;4.72;;;1.15;;
16743;SDS011;71724;-33.900;151.182;2023-11-19T00:17:52;4.93;;;1.35;;
16743;SDS011;71724;-33.900;151.182;2023-11-19T00:20:20;5.18;;;1.27;;
16743;SDS011;71724;-33.900;151.182;2023-11-19T00:22:48;5.07;;;1.00;;
16743;SDS011;71724;-33.900;151.182;2023-11-19T00:25:19;8.93;;;1.50;;
16743;SDS011;71724;-33.900;151.182;2023-11-19T00:27:52;5.20;;;1.00;;
16743;SDS011;71724;-33.900;151.182;2023-11-19T00:30:22;5.53;;;1.40;;
16743;SDS011;71724;-33.900;151.182;2023-11-19T00:32:49;4.13;;;1.25;;
16743;SDS011;71724;-33.900;151.182;2023-11-19T00:35:16;7.50;;;1.38;;
16743;SDS011;71724;-33.900;151.182;2023-11-19T00:37:45;5.35;;;1.25;;
16743;SDS011;71724;-33.900;151.182;2023-11-19T00:40:13;8.98;;;1.48;;
16743;SDS011;71724;-33.900;151.182;2023-11-19T00:42:41;5.70;;;2.08;;
16743;SDS011;71724;-33.900;151.182;2023-11-19T00:45:09;5.15;;;1.50;;
16743;SDS011;71724;-33.900;151.182;2023-11-19T00:47:38;5.25;;;1.30;;
16743;SDS011;71724;-33.900;151.182;2023-11-19T00:50:06;5.60;;;1.40;;
16743;SDS011;71724;-33.900;151.182;2023-11-19T00:52:37;7.60;;;1.52;;
16743;SDS011;71724;-33.900;151.182;2023-11-19T00:55:05;5.75;;;1.27;;
16743;SDS011;71724;-33.900;151.182;2023-11-19T00:57:33;6.90;;;1.58;;
16743;SDS011;71724;-33.900;151.182;2023-11-19T01:00:01;4.95;;;1.45;;
16743;SDS011;71724;-33.900;151.182;2023-11-19T01:02:41;6.78;;;1.70;;
16743;SDS011;71724;-33.900;151.182;2023-11-19T01:05:08;6.82;;;1.75;;
16743;SDS011;71724;-33.900;151.182;2023-11-19T01:07:40;6.80;;;1.30;;
16743;SDS011;71724;-33.900;151.182;2023-11-19T01:10:07;5.72;;;1.40;;
16743;SDS011;71724;-33.900;151.182;2023-11-19T01:12:35;6.68;;;1.10;;
16743;SDS011;71724;-33.900;151.182;2023-11-19T01:15:03;7.88;;;1.35;;
16743;SDS011;71724;-33.900;151.182;2023-11-19T01:17:32;7.00;;;1.45;;
16743;SDS011;71724;-33.900;151.182;2023-11-19T01:19:59;6.95;;;1.55;;
16743;SDS011;71724;-33.900;151.182;2023-11-19T01:22:26;6.15;;;1.35;;
16743;SDS011;71724;-33.900;151.182;2023-11-19T01:24:54;4.82;;;1.30;;
16743;SDS011;71724;-33.900;151.182;2023-11-19T01:27:22;4.55;;;1.30;;
16743;SDS011;71724;-33.900;151.182;2023-11-19T01:29:50;6.25;;;1.65;;
16743;SDS011;71724;-33.900;151.182;2023-11-19T01:32:17;2.70;;;1.15;;
16743;SDS011;71724;-33.900;151.182;2023-11-19T01:34:45;4.70;;;1.60;;
16743;SDS011;71724;-33.900;151.182;2023-11-19T01:37:12;5.72;;;1.35;;
16743;SDS011;71724;-33.900;151.182;2023-11-19T01:39:43;4.43;;;1.40;;
16743;SDS011;71724;-33.900;151.182;2023-11-19T01:42:11;4.78;;;1.30;;
16743;SDS011;71724;-33.900;151.182;2023-11-19T01:44:38;8.50;;;1.65;;
16743;SDS011;71724;-33.900;151.182;2023-11-19T01:47:06;4.80;;;1.55;;
16743;SDS011;71724;-33.900;151.182;2023-11-19T01:49:34;7.00;;;1.50;;
16743;SDS011;71724;-33.900;151.182;2023-11-19T01:52:03;7.78;;;1.63;;
16743;SDS011;71724;-33.900;151.182;2023-11-19T01:54:31;9.48;;;1.58;;
16743;SDS011;71724;-33.900;151.182;2023-11-19T01:56:58;6.10;;;1.40;;
16743;SDS011;71724;-33.900;151.182;2023-11-19T01:59:26;4.65;;;1.83;;
16743;SDS011;71724;-33.900;151.182;2023-11-19T02:01:54;6.82;;;1.60;;
16743;SDS011;71724;-33.900;151.182;2023-11-19T02:04:22;6.45;;;1.50;;
16743;SDS011;71724;-33.900;151.182;2023-11-19T02:06:50;8.30;;;2.03;;
16743;SDS011;71724;-33.900;151.182;2023-11-19T02:09:20;7.97;;;2.00;;
16743;SDS011;71724;-33.900;151.182;2023-11-19T02:11:48;12.25;;;1.95;;
16743;SDS011;71724;-33.900;151.182;2023-11-19T02:14:17;9.00;;;1.98;;
16743;SDS011;71724;-33.900;151.182;2023-11-19T02:16:45;7.85;;;1.67;;
16743;SDS011;71724;-33.900;151.182;2023-11-19T02:19:12;4.55;;;1.48;;
16743;SDS011;71724;-33.900;151.182;2023-11-19T02:21:40;8.40;;;1.88;;
16743;SDS011;71724;-33.900;151.182;2023-11-19T02:24:07;6.97;;;1.83;;
16743;SDS011;71724;-33.900;151.182;2023-11-19T02:29:13;7.45;;;1.58;;
16743;SDS011;71724;-33.900;151.182;2023-11-19T02:31:40;6.05;;;1.35;;
16743;SDS011;71724;-33.900;151.182;2023-11-19T02:34:10;9.48;;;1.75;;
16743;SDS011;71724;-33.900;151.182;2023-11-19T02:36:38;7.63;;;1.63;;
16743;SDS011;71724;-33.900;151.182;2023-11-19T02:39:08;9.38;;;2.00;;
16743;SDS011;71724;-33.900;151.182;2023-11-19T02:41:38;9.20;;;1.95;;
16743;SDS011;71724;-33.900;151.182;2023-11-19T02:44:06;9.90;;;2.00;;
16743;SDS011;71724;-33.900;151.182;2023-11-19T02:46:33;12.80;;;1.88;;
16743;SDS011;71724;-33.900;151.182;2023-11-19T02:49:01;5.45;;;1.55;;
16743;SDS011;71724;-33.900;151.182;2023-11-19T02:51:28;10.32;;;1.77;;
16743;SDS011;71724;-33.900;151.182;2023-11-19T02:53:56;7.28;;;1.80;;
16743;SDS011;71724;-33.900;151.182;2023-11-19T02:56:23;10.60;;;2.38;;
16743;SDS011;71724;-33.900;151.182;2023-11-19T02:58:51;7.70;;;2.05;;
16743;SDS011;71724;-33.900;151.182;2023-11-19T03:01:25;8.57;;;1.95;;
16743;SDS011;71724;-33.900;151.182;2023-11-19T03:03:56;9.00;;;1.95;;
16743;SDS011;71724;-33.900;151.182;2023-11-19T03:06:24;12.27;;;2.33;;
16743;SDS011;71724;-33.900;151.182;2023-11-19T03:08:53;8.93;;;1.63;;
16743;SDS011;71724;-33.900;151.182;2023-11-19T03:11:20;7.63;;;1.88;;
16743;SDS011;71724;-33.900;151.182;2023-11-19T03:13:48;6.32;;;1.70;;
16743;SDS011;71724;-33.900;151.182;2023-11-19T03:16:15;7.47;;;1.65;;
16743;SDS011;71724;-33.900;151.182;2023-11-19T03:18:43;4.25;;;1.60;;
16743;SDS011;71724;-33.900;151.182;2023-11-19T03:21:10;8.07;;;1.27;;
16743;SDS011;71724;-33.900;151.182;2023-11-19T03:23:39;7.30;;;1.63;;
16743;SDS011;71724;-33.900;151.182;2023-11-19T03:26:06;16.38;;;2.05;;
16743;SDS011;71724;-33.900;151.182;2023-11-19T03:28:34;9.00;;;1.90;;
16743;SDS011;71724;-33.900;151.182;2023-11-19T03:31:05;6.97;;;1.60;;
16743;SDS011;71724;-33.900;151.182;2023-11-19T03:33:35;6.43;;;1.67;;
16743;SDS011;71724;-33.900;151.182;2023-11-19T03:36:03;9.38;;;1.85;;
16743;SDS011;71724;-33.900;151.182;2023-11-19T03:38:31;9.13;;;2.03;;
16743;SDS011;71724;-33.900;151.182;2023-11-19T03:40:58;6.65;;;1.80;;
16743;SDS011;71724;-33.900;151.182;2023-11-19T03:43:25;8.75;;;1.92;;
16743;SDS011;71724;-33.900;151.182;2023-11-19T03:45:53;10.05;;;2.08;;
16743;SDS011;71724;-33.900;151.182;2023-11-19T03:48:20;8.05;;;1.75;;
16743;SDS011;71724;-33.900;151.182;2023-11-19T03:50:48;6.70;;;1.83;;
16743;SDS011;71724;-33.900;151.182;2023-11-19T03:53:15;7.03;;;1.67;;
16743;SDS011;71724;-33.900;151.182;2023-11-19T03:55:44;6.93;;;1.65;;
16743;SDS011;71724;-33.900;151.182;2023-11-19T03:58:12;5.18;;;1.67;;
16743;SDS011;71724;-33.900;151.182;2023-11-19T04:00:42;10.48;;;1.90;;
16743;SDS011;71724;-33.900;151.182;2023-11-19T04:03:09;7.57;;;1.63;;
16743;SDS011;71724;-33.900;151.182;2023-11-19T04:05:37;9.48;;;1.67;;
16743;SDS011;71724;-33.900;151.182;2023-11-19T04:08:04;6.22;;;1.60;;
16743;SDS011;71724;-33.900;151.182;2023-11-19T04:10:33;10.25;;;1.75;;
16743;SDS011;71724;-33.900;151.182;2023-11-19T04:13:01;7.55;;;1.85;;
16743;SDS011;71724;-33.900;151.182;2023-11-19T04:15:29;7.57;;;1.50;;
16743;SDS011;71724;-33.900;151.182;2023-11-19T04:17:56;8.27;;;1.67;;
16743;SDS011;71724;-33.900;151.182;2023-11-19T04:20:23;8.65;;;1.77;;
16743;SDS011;71724;-33.900;151.182;2023-11-19T04:22:51;7.65;;;1.90;;
16743;SDS011;71724;-33.900;151.182;2023-11-19T04:25:19;9.75;;;2.10;;
16743;SDS011;71724;-33.900;151.182;2023-11-19T04:27:46;9.77;;;1.83;;
16743;SDS011;71724;-33.900;151.182;2023-11-19T04:30:14;9.82;;;1.60;;
16743;SDS011;71724;-33.900;151.182;2023-11-19T04:32:41;8.95;;;1.98;;
16743;SDS011;71724;-33.900;151.182;2023-11-19T04:35:09;7.00;;;1.60;;
16743;SDS011;71724;-33.900;151.182;2023-11-19T04:37:37;7.85;;;1.92;;
16743;SDS011;71724;-33.900;151.182;2023-11-19T04:40:04;9.57;;;1.67;;
16743;SDS011;71724;-33.900;151.182;2023-11-19T04:42:32;10.55;;;1.88;;
16743;SDS011;71724;-33.900;151.182;2023-11-19T04:45:00;11.82;;;2.08;;
16743;SDS011;71724;-33.900;151.182;2023-11-19T04:47:27;13.90;;;2.22;;
16743;SDS011;71724;-33.900;151.182;2023-11-19T04:49:54;8.45;;;1.50;;
16743;SDS011;71724;-33.900;151.182;2023-11-19T04:52:24;9.32;;;2.08;;
16743;SDS011;71724;-33.900;151.182;2023-11-19T04:54:52;10.07;;;2.08;;
16743;SDS011;71724;-33.900;151.182;2023-11-19T04:57:20;9.68;;;1.88;;
16743;SDS011;71724;-33.900;151.182;2023-11-19T04:59:47;7.68;;;2.13;;
16743;SDS011;71724;-33.900;151.182;2023-11-19T05:02:15;9.38;;;2.13;;
16743;SDS011;71724;-33.900;151.182;2023-11-19T05:04:43;11.68;;;2.45;;
16743;SDS011;71724;-33.900;151.182;2023-11-19T05:07:12;10.32;;;1.92;;
16743;SDS011;71724;-33.900;151.182;2023-11-19T05:09:39;6.47;;;1.40;;
16743;SDS011;71724;-33.900;151.182;2023-11-19T05:12:08;9.63;;;1.77;;
16743;SDS011;71724;-33.900;151.182;2023-11-19T05:14:38;10.60;;;1.73;;
16743;SDS011;71724;-33.900;151.182;2023-11-19T05:17:05;15.05;;;2.83;;
16743;SDS011;71724;-33.900;151.182;2023-11-19T05:19:33;12.43;;;2.20;;
16743;SDS011;71724;-33.900;151.182;2023-11-19T05:22:00;12.93;;;2.40;;
16743;SDS011;71724;-33.900;151.182;2023-11-19T05:24:28;11.60;;;2.00;;
16743;SDS011;71724;-33.900;151.182;2023-11-19T05:26:57;9.65;;;1.90;;
16743;SDS011;71724;-33.900;151.182;2023-11-19T05:29:24;10.52;;;2.50;;
16743;SDS011;71724;-33.900;151.182;2023-11-19T05:31:52;7.32;;;1.75;;
16743;SDS011;71724;-33.900;151.182;2023-11-19T05:34:21;12.52;;;2.25;;
16743;SDS011;71724;-33.900;151.182;2023-11-19T05:36:48;12.50;;;1.95;;
16743;SDS011;71724;-33.900;151.182;2023-11-19T05:39:16;10.80;;;2.10;;
16743;SDS011;71724;-33.900;151.182;2023-11-19T05:41:47;8.80;;;1.83;;
16743;SDS011;71724;-33.900;151.182;2023-11-19T05:44:14;12.30;;;2.42;;
16743;SDS011;71724;-33.900;151.182;2023-11-19T05:46:43;14.00;;;2.92;;
16743;SDS011;71724;-33.900;151.182;2023-11-19T05:49:11;9.93;;;2.70;;
16743;SDS011;71724;-33.900;151.182;2023-11-19T05:51:39;9.60;;;1.85;;
16743;SDS011;71724;-33.900;151.182;2023-11-19T05:54:10;9.27;;;1.70;;
16743;SDS011;71724;-33.900;151.182;2023-11-19T05:56:40;9.95;;;1.92;;
16743;SDS011;71724;-33.900;151.182;2023-11-19T05:59:07;11.80;;;2.50;;
16743;SDS011;71724;-33.900;151.182;2023-11-19T06:01:40;14.05;;;2.50;;
16743;SDS011;71724;-33.900;151.182;2023-11-19T06:04:08;9.27;;;2.17;;
16743;SDS011;71724;-33.900;151.182;2023-11-19T06:06:38;11.43;;;2.00;;
16743;SDS011;71724;-33.900;151.182;2023-11-19T06:09:06;9.25;;;2.25;;
16743;SDS011;71724;-33.900;151.182;2023-11-19T06:11:34;11.60;;;2.10;;
16743;SDS011;71724;-33.900;151.182;2023-11-19T06:14:02;8.02;;;1.90;;
16743;SDS011;71724;-33.900;151.182;2023-11-19T06:16:31;12.68;;;2.40;;
16743;SDS011;71724;-33.900;151.182;2023-11-19T06:18:58;11.02;;;2.25;;
16743;SDS011;71724;-33.900;151.182;2023-11-19T06:21:26;15.30;;;3.10;;
16743;SDS011;71724;-33.900;151.182;2023-11-19T06:23:53;7.80;;;2.95;;
16743;SDS011;71724;-33.900;151.182;2023-11-19T06:26:21;14.90;;;2.60;;
16743;SDS011;71724;-33.900;151.182;2023-11-19T06:28:49;9.45;;;2.25;;
16743;SDS011;71724;-33.900;151.182;2023-11-19T06:31:16;10.50;;;2.42;;
16743;SDS011;71724;-33.900;151.182;2023-11-19T06:33:43;14.07;;;2.40;;
16743;SDS011;71724;-33.900;151.182;2023-11-19T06:36:14;13.68;;;2.63;;
16743;SDS011;71724;-33.900;151.182;2023-11-19T06:38:44;13.80;;;2.85;;
16743;SDS011;71724;-33.900;151.182;2023-11-19T06:41:12;15.07;;;2.90;;
16743;SDS011;71724;-33.900;151.182;2023-11-19T06:43:39;7.93;;;2.30;;
16743;SDS011;71724;-33.900;151.182;2023-11-19T06:46:14;13.25;;;2.40;;
16743;SDS011;71724;-33.900;151.182;2023-11-19T06:51:10;15.82;;;2.35;;
16743;SDS011;71724;-33.900;151.182;2023-11-19T06:53:37;10.23;;;2.33;;
16743;SDS011;71724;-33.900;151.182;2023-11-19T06:58:50;14.55;;;2.33;;
16743;SDS011;71724;-33.900;151.182;2023-11-19T07:01:18;8.73;;;1.90;;
16743;SDS011;71724;-33.900;151.182;2023-11-19T07:03:46;10.65;;;2.35;;
16743;SDS011;71724;-33.900;151.182;2023-11-19T07:06:13;12.93;;;2.70;;
16743;SDS011;71724;-33.900;151.182;2023-11-19T07:08:42;9.93;;;2.97;;
16743;SDS011;71724;-33.900;151.182;2023-11-19T07:11:13;9.43;;;2.42;;
16743;SDS011;71724;-33.900;151.182;2023-11-19T07:13:42;12.15;;;2.72;;
16743;SDS011;71724;-33.900;151.182;2023-11-19T07:16:11;14.10;;;2.78;;
16743;SDS011;71724;-33.900;151.182;2023-11-19T07:18:41;13.68;;;2.50;;
16743;SDS011;71724;-33.900;151.182;2023-11-19T07:21:09;18.20;;;3.05;;
16743;SDS011;71724;-33.900;151.182;2023-11-19T07:23:37;13.48;;;3.15;;
16743;SDS011;71724;-33.900;151.182;2023-11-19T07:26:05;11.20;;;2.90;;
16743;SDS011;71724;-33.900;151.182;2023-11-19T07:28:36;16.05;;;2.95;;
16743;SDS011;71724;-33.900;151.182;2023-11-19T07:31:05;9.40;;;2.72;;
16743;SDS011;71724;-33.900;151.182;2023-11-19T07:33:35;12.18;;;2.60;;
16743;SDS011;71724;-33.900;151.182;2023-11-19T07:36:04;15.93;;;2.60;;
16743;SDS011;71724;-33.900;151.182;2023-11-19T07:38:31;13.45;;;2.83;;
16743;SDS011;71724;-33.900;151.182;2023-11-19T07:40:59;10.38;;;2.33;;
16743;SDS011;71724;-33.900;151.182;2023-11-19T07:43:26;11.57;;;2.33;;
16743;SDS011;71724;-33.900;151.182;2023-11-19T07:45:54;15.43;;;2.35;;
16743;SDS011;71724;-33.900;151.182;2023-11-19T07:48:21;18.60;;;2.72;;
16743;SDS011;71724;-33.900;151.182;2023-11-19T07:50:49;19.92;;;2.75;;
16743;SDS011;71724;-33.900;151.182;2023-11-19T07:53:16;17.73;;;3.50;;
16743;SDS011;71724;-33.900;151.182;2023-11-19T07:55:44;14.10;;;2.75;;
16743;SDS011;71724;-33.900;151.182;2023-11-19T07:58:12;10.88;;;2.65;;
16743;SDS011;71724;-33.900;151.182;2023-11-19T08:00:39;9.48;;;2.40;;
16743;SDS011;71724;-33.900;151.182;2023-11-19T08:03:07;12.05;;;2.80;;
16743;SDS011;71724;-33.900;151.182;2023-11-19T08:05:35;13.68;;;2.60;;
16743;SDS011;71724;-33.900;151.182;2023-11-19T08:08:03;15.30;;;2.88;;
16743;SDS011;71724;-33.900;151.182;2023-11-19T08:10:30;13.98;;;2.95;;
16743;SDS011;71724;-33.900;151.182;2023-11-19T08:12:58;16.23;;;2.90;;
16743;SDS011;71724;-33.900;151.182;2023-11-19T08:15:26;12.50;;;2.83;;
16743;SDS011;71724;-33.900;151.182;2023-11-19T08:17:53;13.73;;;2.70;;
16743;SDS011;71724;-33.900;151.182;2023-11-19T08:20:21;23.02;;;3.03;;
16743;SDS011;71724;-33.900;151.182;2023-11-19T08:22:49;18.50;;;3.70;;
16743;SDS011;71724;-33.900;151.182;2023-11-19T08:25:16;15.68;;;2.83;;
16743;SDS011;71724;-33.900;151.182;2023-11-19T08:27:44;14.90;;;2.45;;
16743;SDS011;71724;-33.900;151.182;2023-11-19T08:30:12;14.25;;;3.00;;
16743;SDS011;71724;-33.900;151.182;2023-11-19T08:32:40;12.73;;;2.53;;
16743;SDS011;71724;-33.900;151.182;2023-11-19T08:35:07;15.60;;;2.85;;
16743;SDS011;71724;-33.900;151.182;2023-11-19T08:37:38;13.80;;;2.70;;
16743;SDS011;71724;-33.900;151.182;2023-11-19T08:40:06;15.40;;;2.80;;
16743;SDS011;71724;-33.900;151.182;2023-11-19T08:42:34;13.68;;;2.80;;
16743;SDS011;71724;-33.900;151.182;2023-11-19T08:45:02;14.70;;;2.88;;
16743;SDS011;71724;-33.900;151.182;2023-11-19T08:47:30;14.20;;;2.47;;
16743;SDS011;71724;-33.900;151.182;2023-11-19T08:49:57;13.73;;;2.70;;
16743;SDS011;71724;-33.900;151.182;2023-11-19T08:52:25;13.88;;;2.78;;
16743;SDS011;71724;-33.900;151.182;2023-11-19T08:54:52;10.95;;;2.38;;
16743;SDS011;71724;-33.900;151.182;2023-11-19T08:57:20;15.52;;;2.90;;
16743;SDS011;71724;-33.900;151.182;2023-11-19T08:59:48;15.35;;;2.53;;
16743;SDS011;71724;-33.900;151.182;2023-11-19T09:02:19;12.02;;;2.42;;
16743;SDS011;71724;-33.900;151.182;2023-11-19T09:04:46;10.73;;;3.08;;
16743;SDS011;71724;-33.900;151.182;2023-11-19T09:07:14;17.10;;;3.10;;
16743;SDS011;71724;-33.900;151.182;2023-11-19T09:09:41;12.57;;;2.80;;
16743;SDS011;71724;-33.900;151.182;2023-11-19T09:12:08;9.95;;;2.92;;
16743;SDS011;71724;-33.900;151.182;2023-11-19T09:14:36;17.52;;;3.08;;
16743;SDS011;71724;-33.900;151.182;2023-11-19T09:17:03;15.63;;;2.65;;
16743;SDS011;71724;-33.900;151.182;2023-11-19T09:19:32;12.50;;;2.70;;
16743;SDS011;71724;-33.900;151.182;2023-11-19T09:22:01;18.35;;;3.08;;
16743;SDS011;71724;-33.900;151.182;2023-11-19T09:24:29;13.90;;;2.72;;
16743;SDS011;71724;-33.900;151.182;2023-11-19T09:26:56;16.02;;;2.65;;
16743;SDS011;71724;-33.900;151.182;2023-11-19T09:29:24;15.88;;;2.88;;
16743;SDS011;71724;-33.900;151.182;2023-11-19T09:31:51;11.98;;;2.30;;
16743;SDS011;71724;-33.900;151.182;2023-11-19T09:34:19;13.10;;;2.70;;
16743;SDS011;71724;-33.900;151.182;2023-11-19T09:36:46;13.32;;;2.42;;
16743;SDS011;71724;-33.900;151.182;2023-11-19T09:39:14;19.70;;;3.13;;
16743;SDS011;71724;-33.900;151.182;2023-11-19T09:41:44;14.82;;;2.78;;
16743;SDS011;71724;-33.900;151.182;2023-11-19T09:44:12;17.83;;;3.45;;
16743;SDS011;71724;-33.900;151.182;2023-11-19T09:46:43;11.75;;;2.72;;
16743;SDS011;71724;-33.900;151.182;2023-11-19T09:49:12;14.60;;;3.00;;
16743;SDS011;71724;-33.900;151.182;2023-11-19T09:51:40;13.15;;;2.58;;
16743;SDS011;71724;-33.900;151.182;2023-11-19T09:54:08;16.90;;;3.05;;
16743;SDS011;71724;-33.900;151.182;2023-11-19T09:56:35;16.48;;;2.80;;
16743;SDS011;71724;-33.900;151.182;2023-11-19T09:59:04;21.08;;;3.03;;
16743;SDS011;71724;-33.900;151.182;2023-11-19T10:01:32;14.27;;;2.47;;
16743;SDS011;71724;-33.900;151.182;2023-11-19T10:04:01;15.35;;;2.55;;
16743;SDS011;71724;-33.900;151.182;2023-11-19T10:06:29;14.15;;;2.40;;
16743;SDS011;71724;-33.900;151.182;2023-11-19T10:08:56;14.82;;;3.10;;
16743;SDS011;71724;-33.900;151.182;2023-11-19T10:11:25;14.18;;;2.80;;
16743;SDS011;71724;-33.900;151.182;2023-11-19T10:13:53;11.52;;;2.70;;
16743;SDS011;71724;-33.900;151.182;2023-11-19T10:16:24;15.70;;;2.72;;
16743;SDS011;71724;-33.900;151.182;2023-11-19T10:18:57;14.40;;;2.75;;
16743;SDS011;71724;-33.900;151.182;2023-11-19T10:21:24;14.77;;;2.83;;
16743;SDS011;71724;-33.900;151.182;2023-11-19T10:23:56;12.55;;;2.70;;
16743;SDS011;71724;-33.900;151.182;2023-11-19T10:26:26;16.00;;;3.08;;
16743;SDS011;71724;-33.900;151.182;2023-11-19T10:28:55;17.05;;;2.72;;
16743;SDS011;71724;-33.900;151.182;2023-11-19T10:31:22;20.98;;;3.10;;
16743;SDS011;71724;-33.900;151.182;2023-11-19T10:33:50;17.23;;;3.33;;
16743;SDS011;71724;-33.900;151.182;2023-11-19T10:36:20;12.23;;;2.60;;
16743;SDS011;71724;-33.900;151.182;2023-11-19T10:38:56;14.30;;;2.85;;
16743;SDS011;71724;-33.900;151.182;2023-11-19T10:41:27;15.83;;;3.13;;
16743;SDS011;71724;-33.900;151.182;2023-11-19T10:43:56;19.65;;;3.83;;
16743;SDS011;71724;-33.900;151.182;2023-11-19T10:46:35;12.68;;;2.72;;
16743;SDS011;71724;-33.900;151.182;2023-11-19T10:49:07;18.33;;;2.80;;
16743;SDS011;71724;-33.900;151.182;2023-11-19T10:51:36;12.13;;;2.78;;
16743;SDS011;71724;-33.900;151.182;2023-11-19T10:54:11;15.30;;;2.85;;
16743;SDS011;71724;-33.900;151.182;2023-11-19T10:56:45;17.42;;;3.08;;
16743;SDS011;71724;-33.900;151.182;2023-11-19T10:59:22;21.58;;;3.58;;
16743;SDS011;71724;-33.900;151.182;2023-11-19T11:01:53;14.25;;;2.45;;
16743;SDS011;71724;-33.900;151.182;2023-11-19T11:04:24;13.98;;;2.80;;
16743;SDS011;71724;-33.900;151.182;2023-11-19T11:06:56;20.20;;;3.15;;
16743;SDS011;71724;-33.900;151.182;2023-11-19T11:09:30;18.13;;;3.63;;
16743;SDS011;71724;-33.900;151.182;2023-11-19T11:11:58;14.00;;;3.30;;
16743;SDS011;71724;-33.900;151.182;2023-11-19T11:14:27;15.00;;;2.75;;
16743;SDS011;71724;-33.900;151.182;2023-11-19T11:16:55;13.02;;;2.60;;
16743;SDS011;71724;-33.900;151.182;2023-11-19T11:19:26;15.45;;;3.20;;
16743;SDS011;71724;-33.900;151.182;2023-11-19T11:21:54;13.82;;;2.40;;
16743;SDS011;71724;-33.900;151.182;2023-11-19T11:29:57;17.33;;;3.00;;
16743;SDS011;71724;-33.900;151.182;2023-11-19T11:32:43;12.38;;;2.60;;
16743;SDS011;71724;-33.900;151.182;2023-11-19T11:38:21;14.70;;;3.10;;
16743;SDS011;71724;-33.900;151.182;2023-11-19T11:43:56;16.83;;;2.78;;
16743;SDS011;71724;-33.900;151.182;2023-11-19T11:49:08;17.70;;;2.90;;
16743;SDS011;71724;-33.900;151.182;2023-11-19T11:51:57;13.68;;;2.63;;
16743;SDS011;71724;-33.900;151.182;2023-11-19T11:57:06;13.98;;;2.75;;
16743;SDS011;71724;-33.900;151.182;2023-11-19T12:02:09;15.52;;;2.83;;
16743;SDS011;71724;-33.900;151.182;2023-11-19T12:05:17;12.90;;;2.80;;
16743;SDS011;71724;-33.900;151.182;2023-11-19T12:15:09;11.05;;;2.53;;
16743;SDS011;71724;-33.900;151.182;2023-11-19T12:17:37;14.50;;;2.75;;
16743;SDS011;71724;-33.900;151.182;2023-11-19T12:20:10;14.05;;;2.80;;
16743;SDS011;71724;-33.900;151.182;2023-11-19T12:22:51;20.85;;;3.00;;
16743;SDS011;71724;-33.900;151.182;2023-11-19T12:25:22;17.20;;;3.30;;
16743;SDS011;71724;-33.900;151.182;2023-11-19T12:27:50;14.57;;;2.78;;
16743;SDS011;71724;-33.900;151.182;2023-11-19T12:30:23;14.02;;;2.72;;
16743;SDS011;71724;-33.900;151.182;2023-11-19T12:32:52;11.55;;;2.45;;
16743;SDS011;71724;-33.900;151.182;2023-11-19T12:35:20;16.02;;;2.20;;
16743;SDS011;71724;-33.900;151.182;2023-11-19T12:37:49;12.65;;;2.55;;
16743;SDS011;71724;-33.900;151.182;2023-11-19T12:40:19;11.32;;;2.25;;
16743;SDS011;71724;-33.900;151.182;2023-11-19T12:42:51;12.60;;;2.60;;
16743;SDS011;71724;-33.900;151.182;2023-11-19T12:45:19;13.93;;;2.28;;
16743;SDS011;71724;-33.900;151.182;2023-11-19T12:47:49;20.50;;;3.05;;
16743;SDS011;71724;-33.900;151.182;2023-11-19T12:50:18;8.70;;;2.25;;
16743;SDS011;71724;-33.900;151.182;2023-11-19T12:52:57;17.92;;;3.80;;
16743;SDS011;71724;-33.900;151.182;2023-11-19T12:55:26;11.60;;;2.67;;
16743;SDS011;71724;-33.900;151.182;2023-11-19T12:57:55;12.93;;;2.50;;
16743;SDS011;71724;-33.900;151.182;2023-11-19T13:00:25;16.92;;;2.90;;
16743;SDS011;71724;-33.900;151.182;2023-11-19T13:02:54;10.90;;;2.55;;
16743;SDS011;71724;-33.900;151.182;2023-11-19T13:05:23;12.73;;;2.58;;
16743;SDS011;71724;-33.900;151.182;2023-11-19T13:10:33;17.95;;;3.08;;
16743;SDS011;71724;-33.900;151.182;2023-11-19T13:13:17;17.08;;;3.30;;
16743;SDS011;71724;-33.900;151.182;2023-11-19T13:15:45;11.98;;;2.40;;
16743;SDS011;71724;-33.900;151.182;2023-11-19T13:18:15;14.68;;;2.53;;
16743;SDS011;71724;-33.900;151.182;2023-11-19T13:20:43;15.77;;;2.55;;
16743;SDS011;71724;-33.900;151.182;2023-11-19T13:23:10;14.05;;;2.70;;
16743;SDS011;71724;-33.900;151.182;2023-11-19T13:25:39;8.25;;;2.42;;
16743;SDS011;71724;-33.900;151.182;2023-11-19T13:28:06;13.82;;;2.58;;
16743;SDS011;71724;-33.900;151.182;2023-11-19T13:30:35;17.83;;;2.85;;
16743;SDS011;71724;-33.900;151.182;2023-11-19T13:33:02;12.60;;;2.33;;
16743;SDS011;71724;-33.900;151.182;2023-11-19T13:35:30;12.13;;;2.30;;
16743;SDS011;71724;-33.900;151.182;2023-11-19T13:37:57;10.75;;;2.83;;
16743;SDS011;71724;-33.900;151.182;2023-11-19T13:40:24;16.88;;;2.60;;
16743;SDS011;71724;-33.900;151.182;2023-11-19T13:42:52;14.50;;;3.03;;
16743;SDS011;71724;-33.900;151.182;2023-11-19T13:45:20;11.93;;;2.35;;
16743;SDS011;71724;-33.900;151.182;2023-11-19T13:47:47;14.88;;;2.50;;
16743;SDS011;71724;-33.900;151.182;2023-11-19T13:50:15;12.45;;;2.38;;
16743;SDS011;71724;-33.900;151.182;2023-11-19T13:52:43;9.05;;;2.05;;
16743;SDS011;71724;-33.900;151.182;2023-11-19T13:55:13;12.88;;;2.30;;
16743;SDS011;71724;-33.900;151.182;2023-11-19T13:57:41;9.35;;;1.90;;
16743;SDS011;71724;-33.900;151.182;2023-11-19T14:00:10;10.95;;;2.28;;
16743;SDS011;71724;-33.900;151.182;2023-11-19T14:02:47;14.02;;;2.63;;
16743;SDS011;71724;-33.900;151.182;2023-11-19T14:05:15;13.35;;;2.28;;
16743;SDS011;71724;-33.900;151.182;2023-11-19T14:07:43;17.23;;;2.78;;
16743;SDS011;71724;-33.900;151.182;2023-11-19T14:10:14;18.35;;;3.33;;
16743;SDS011;71724;-33.900;151.182;2023-11-19T14:12:41;15.85;;;2.60;;
16743;SDS011;71724;-33.900;151.182;2023-11-19T14:15:09;11.02;;;2.60;;
16743;SDS011;71724;-33.900;151.182;2023-11-19T14:17:41;18.92;;;2.95;;
16743;SDS011;71724;-33.900;151.182;2023-11-19T14:20:09;14.63;;;2.67;;
16743;SDS011;71724;-33.900;151.182;2023-11-19T14:22:44;11.25;;;2.40;;
16743;SDS011;71724;-33.900;151.182;2023-11-19T14:25:17;14.73;;;2.80;;
16743;SDS011;71724;-33.900;151.182;2023-11-19T14:27:44;17.73;;;3.00;;
16743;SDS011;71724;-33.900;151.182;2023-11-19T14:30:12;18.48;;;2.67;;
16743;SDS011;71724;-33.900;151.182;2023-11-19T14:32:40;18.55;;;3.05;;
16743;SDS011;71724;-33.900;151.182;2023-11-19T14:35:12;18.27;;;2.95;;
16743;SDS011;71724;-33.900;151.182;2023-11-19T14:37:40;10.05;;;2.80;;
16743;SDS011;71724;-33.900;151.182;2023-11-19T14:40:07;13.35;;;3.03;;
16743;SDS011;71724;-33.900;151.182;2023-11-19T14:42:37;15.48;;;2.60;;
16743;SDS011;71724;-33.900;151.182;2023-11-19T14:45:04;10.68;;;2.45;;
16743;SDS011;71724;-33.900;151.182;2023-11-19T14:47:33;14.98;;;3.20;;